Van Nuys, CA (91407)

1:38 PM PDT on September 16, 2014 (GMT -0700)
Valley Glen - Hacienda | Change Station
CLOSE
Current Station
Personal Weather Station
Location: Los Angeles, CA
Elevation: 709 ft
Nearby Weather Stations
Active Advisory: Excessive Heat Warning Active Notice: Record Report

Elev 709 ft 34.18 °N, 118.42 °W | Updated 2 seconds ago

Partly Cloudy
Partly Cloudy
103.3 °F
Feels Like 104 °F
N
8.0
Wind Variable Wind from SSE
Gusts 10.0 mph

Today
High -- | Low -- °F
--% Chance of Precip.
Yesterday
High -- | Low -- °F
Precip. -- in
6:37 AM 6:58 PM
Last Quarter, 42% visible
Pressure 29.71 in
Visibility 10.0 miles
Clouds Few 10000 ft
Heat Index 104 °F
Dew Point 59 °F
Humidity 24%
Rainfall 0.00 in
Snow Depth 0 in , 0 in , 0 in
UV 9 out of 12
Pollen 6.80 out of 12
Ozone Moderate
PM2.5 Moderate
Flu Activity Not available.
METAR KVNY 161951Z 25005KT 10SM FEW100 40/10 A2974 RMK AO2 SLP059 T04000100

More Conditions Fewer Conditions

Pressure 29.71 in
Visibility 10.0 miles
Clouds Few 10000 ft
Heat Index 104 °F
Dew Point 59 °F
Humidity 24%
Rainfall 0.00 in
Snow Depth 0 in , 0 in , 0 in
UV 9 out of 12
Pollen 6.80 out of 12
Ozone Moderate
PM2.5 Moderate
Flu Activity Not available.
METAR KVNY 161951Z 25005KT 10SM FEW100 40/10 A2974 RMK AO2 SLP059 T04000100

More Conditions Fewer Conditions

10-Day Weather Forecast

Almanac

Astronomy

Sep. 16, 2014 Rise Set
Actual Time 6:37 AM PDT 6:58 PM PDT
Civil Twilight 6:12 AM PDT 7:23 PM PDT
Nautical Twilight 5:43 AM PDT 7:53 PM PDT
Astronomical Twilight 5:13 AM PDT 8:23 PM PDT
Moon 12:02 AM PDT 2:15 PM PDT
Length of Visible Light 13h 11m
Length of Day
12h 21m
Tomorrow will be 2m 7s shorter.
Last Quarter, 42% of the Moon is Illuminated
Today
Last Quarter
Sep 24
New
Oct 1
First Quarter
Oct 8
Full
Oct 15
Last Quarter

Today's Extremes

State Highs State Lows

Community

WunderPhotos

Upload Photos

1,753,871 photos uploaded!

Nearby

Air Quality

  Air Quality AQ Index Pollutant
Yesterday Moderate
OZONE
Yesterday Moderate
PM2.5
Current Moderate
PM2.5
Current Moderate
OZONE
Wednesday Good
PM10
Wednesday Moderate
OZONE
Wednesday Good
CO
Wednesday Good
NO2

Snow Depth

Station Depth Elevation
Echo Peak 0 in 7800 ft
Leavitt Meadows 0 in 7200 ft
Adin Mountain 0 in 6200 ft
CSS Lab 1 in 6900 ft
Summit Meadow 0 in 9122 ft

Earthquake Activity

City Distance Mag. Time & Date
La Quinta, California 123 miles 2.7 8:59 PM PDT
2014-09-15
Inyokern, California 121 miles 3.2 5:56 PM PDT
2014-09-14
San Jacinto, California 89 miles 3.0 3:16 PM PDT
2014-09-14
Minimum magnitude displayed is 2.5.

Coastal Water Temperatures

Place Temperature
Santa Monica Pier 73.0 °F
Los Angeles, CA 70.0 °F
La Jolla, CA 70.0 °F

Nearby Weather Stations